| time (UTC) | temp C | wind direction | speed KPH | gust KPH | rain 1hr cm | rain 24hr cm | rain mn cm | humidity % | barometer mb |
| 20260506172004 | 22 | 0 | 0.0 | 0.0 | 0.00 | 0.00 | 0.00 | 43 | 1005.3 |
| 20260506171504 | 22 | 0 | 0.0 | 0.0 | 0.00 | 0.00 | 0.00 | 42 | 1005.1 |
| 20260506171214 | 22 | 0 | 0.0 | 0.0 | 0.00 | 0.00 | 0.00 | 40 | 1005.4 |
| 20260506170503 | 22 | 0 | 0.0 | 0.0 | 0.00 | 0.00 | 0.00 | 40 | 1005.3 |
| 20260506170004 | 22 | 0 | 0.0 | 0.0 | 0.00 | 0.00 | 0.00 | 40 | 1005.3 |
| 20260506165503 | 22 | 0 | 0.0 | 0.0 | 0.00 | 0.00 | 0.00 | 40 | 1005.5 |
| 20260506165003 | 23 | 0 | 0.0 | 0.0 | 0.00 | 0.00 | 0.00 | 39 | 1005.2 |
| 20260506164504 | 23 | 0 | 0.0 | 0.0 | 0.00 | 0.00 | 0.00 | 38 | 1005.3 |
| 20260506164004 | 23 | 0 | 0.0 | 0.0 | 0.00 | 0.00 | 0.00 | 38 | 1005.4 |
| 20260506163503 | 23 | 0 | 0.0 | 0.0 | 0.00 | 0.00 | 0.00 | 37 | 1005.2 |
| 20260506163004 | 23 | 0 | 0.0 | 0.0 | 0.00 | 0.00 | 0.00 | 36 | 1005.2 |
| 20260506162503 | 24 | 0 | 0.0 | 0.0 | 0.00 | 0.00 | 0.00 | 36 | 1005.0 |
| 20260506162214 | 24 | 0 | 0.0 | 0.0 | 0.00 | 0.00 | 0.00 | 36 | 1005.1 |
| 20260506161504 | 25 | 0 | 0.0 | 0.0 | 0.00 | 0.00 | 0.00 | 36 | 1005.1 |
| 20260506161004 | 25 | 0 | 0.0 | 0.0 | 0.00 | 0.00 | 0.00 | 36 | 1004.9 |
| 20260506160504 | 25 | 0 | 0.0 | 0.0 | 0.00 | 0.00 | 0.00 | 36 | 1005.0 |
| 20260506160004 | 25 | 0 | 0.0 | 0.0 | 0.00 | 0.00 | 0.00 | 36 | 1005.1 |
| 20260506155504 | 25 | 0 | 0.0 | 0.0 | 0.00 | 0.00 | 0.00 | 36 | 1005.1 |
| 20260506155004 | 25 | 0 | 0.0 | 0.0 | 0.00 | 0.00 | 0.00 | 36 | 1005.1 |
| 20260506154503 | 25 | 0 | 0.0 | 0.0 | 0.00 | 0.00 | 0.00 | 35 | 1005.0 |
| 20260506154005 | 25 | 0 | 0.0 | 0.0 | 0.00 | 0.00 | 0.00 | 34 | 1005.1 |
| 20260506153504 | 25 | 0 | 0.0 | 0.0 | 0.00 | 0.00 | 0.00 | 35 | 1005.1 |
| 20260506153004 | 26 | 0 | 0.0 | 0.0 | 0.00 | 0.00 | 0.00 | 34 | 1005.1 |
| 20260506152717 | 26 | 0 | 0.0 | 0.0 | 0.00 | 0.00 | 0.00 | 34 | 1005.0 |
| 20260506152004 | 26 | 0 | 0.0 | 0.0 | 0.00 | 0.00 | 0.00 | 34 | 1005.0 |
| 20260506151503 | 26 | 0 | 0.0 | 0.0 | 0.00 | 0.00 | 0.00 | 34 | 1005.1 |
| 20260506151003 | 26 | 0 | 0.0 | 0.0 | 0.00 | 0.00 | 0.00 | 36 | 1004.7 |
| 20260506150713 | 26 | 0 | 0.0 | 0.0 | 0.00 | 0.00 | 0.00 | 35 | 1005.1 |
| 20260506150005 | 25 | 0 | 0.0 | 0.0 | 0.00 | 0.00 | 0.00 | 37 | 1004.9 |
| 20260506145504 | 25 | 0 | 0.0 | 0.0 | 0.00 | 0.00 | 0.00 | 36 | 1005.0 |
| 20260506145004 | 25 | 189 | 1.6 | 9.7 | 0.00 | 0.00 | 0.00 | 35 | 1005.0 |
| 20260506144504 | 26 | 194 | 1.6 | 9.7 | 0.00 | 0.00 | 0.00 | 33 | 1005.0 |
| 20260506144004 | 26 | 225 | 0.0 | 6.4 | 0.00 | 0.00 | 0.00 | 33 | 1005.1 |
| 20260506143716 | 27 | 0 | 0.0 | 0.0 | 0.00 | 0.00 | 0.00 | 34 | 1005.1 |
| 20260506143004 | 27 | 0 | 0.0 | 0.0 | 0.00 | 0.00 | 0.00 | 33 | 1005.1 |
| 20260506142717 | 26 | 0 | 0.0 | 0.0 | 0.00 | 0.00 | 0.00 | 33 | 1004.9 |
| 20260506142004 | 26 | 225 | 0.0 | 9.7 | 0.00 | 0.00 | 0.00 | 34 | 1004.9 |
| 20260506141713 | 26 | 225 | 0.0 | 9.7 | 0.00 | 0.00 | 0.00 | 34 | 1005.0 |
| 20260506141004 | 26 | 0 | 0.0 | 0.0 | 0.00 | 0.00 | 0.00 | 35 | 1004.8 |
| 20260506140503 | 26 | 0 | 0.0 | 0.0 | 0.00 | 0.00 | 0.00 | 34 | 1004.8 |
| 20260506140004 | 26 | 0 | 0.0 | 0.0 | 0.00 | 0.00 | 0.00 | 34 | 1004.9 |
| 20260506135503 | 25 | 247 | 0.0 | 1.6 | 0.00 | 0.00 | 0.00 | 34 | 1004.7 |
| 20260506135003 | 26 | 247 | 0.0 | 1.6 | 0.00 | 0.00 | 0.00 | 33 | 1004.7 |
| 20260506134504 | 26 | 0 | 0.0 | 0.0 | 0.00 | 0.00 | 0.00 | 33 | 1004.6 |
| 20260506134004 | 26 | 225 | 0.0 | 3.2 | 0.00 | 0.00 | 0.00 | 33 | 1004.7 |
| 20260506133504 | 25 | 232 | 1.6 | 6.4 | 0.00 | 0.00 | 0.00 | 35 | 1004.5 |
| 20260506133004 | 25 | 235 | 1.6 | 6.4 | 0.00 | 0.00 | 0.00 | 35 | 1004.8 |
| 20260506132503 | 25 | 0 | 0.0 | 0.0 | 0.00 | 0.00 | 0.00 | 34 | 1004.7 |
| 20260506132003 | 25 | 247 | 1.6 | 9.7 | 0.00 | 0.00 | 0.00 | 33 | 1004.6 |
| 20260506131503 | 25 | 247 | 1.6 | 9.7 | 0.00 | 0.00 | 0.00 | 33 | 1004.7 |
| 20260506131004 | 25 | 0 | 0.0 | 0.0 | 0.00 | 0.00 | 0.00 | 33 | 1004.5 |
| 20260506130504 | 25 | 255 | 1.6 | 9.7 | 0.00 | 0.00 | 0.00 | 32 | 1004.5 |
| 20260506130005 | 26 | 255 | 1.6 | 9.7 | 0.00 | 0.00 | 0.00 | 32 | 1004.6 |
| 20260506125503 | 26 | 225 | 0.0 | 1.6 | 0.00 | 0.00 | 0.00 | 31 | 1004.7 |
| 20260506125003 | 26 | 196 | 0.0 | 1.6 | 0.00 | 0.00 | 0.00 | 31 | 1004.3 |
| 20260506124503 | 26 | 180 | 0.0 | 1.6 | 0.00 | 0.00 | 0.00 | 31 | 1004.5 |
| 20260506124004 | 26 | 0 | 0.0 | 0.0 | 0.00 | 0.00 | 0.00 | 32 | 1004.4 |
| 20260506123504 | 25 | 0 | 0.0 | 0.0 | 0.00 | 0.00 | 0.00 | 32 | 1004.6 |
| 20260506123004 | 25 | 0 | 0.0 | 0.0 | 0.00 | 0.00 | 0.00 | 31 | 1004.7 |
| 20260506122503 | 25 | 197 | 0.0 | 3.2 | 0.00 | 0.00 | 0.00 | 31 | 1004.7 |
| 20260506122003 | 25 | 209 | 1.6 | 8.0 | 0.00 | 0.00 | 0.00 | 31 | 1004.7 |
| 20260506121715 | 26 | 242 | 3.2 | 16.1 | 0.00 | 0.00 | 0.00 | 31 | 1004.5 |
| 20260506121003 | 26 | 270 | 1.6 | 16.1 | 0.00 | 0.00 | 0.00 | 30 | 1004.5 |
| 20260506120504 | 26 | 225 | 0.0 | 1.6 | 0.00 | 0.00 | 0.00 | 30 | 1004.4 |
| 20260506120213 | 26 | 242 | 1.6 | 9.7 | 0.00 | 0.00 | 0.00 | 30 | 1004.5 |
| 20260506115504 | 26 | 235 | 3.2 | 9.7 | 0.00 | 0.00 | 0.00 | 29 | 1004.5 |
| 20260506115214 | 26 | 225 | 1.6 | 9.7 | 0.00 | 0.00 | 0.00 | 29 | 1004.2 |
| 20260506114717 | 26 | 0 | 0.0 | 0.0 | 0.00 | 0.00 | 0.00 | 30 | 1004.4 |
| 20260506114004 | 26 | 0 | 0.0 | 0.0 | 0.00 | 0.00 | 0.00 | 29 | 1004.1 |
| 20260506113713 | 27 | 0 | 0.0 | 0.0 | 0.00 | 0.00 | 0.00 | 29 | 1004.4 |
| 20260506113003 | 27 | 233 | 0.0 | 3.2 | 0.00 | 0.00 | 0.00 | 23 | 1004.3 |
| 20260506112503 | 28 | 212 | 1.6 | 6.4 | 0.00 | 0.00 | 0.00 | 23 | 1004.3 |
| 20260506112217 | 28 | 212 | 1.6 | 6.4 | 0.00 | 0.00 | 0.00 | 23 | 1004.3 |
| 20260506111715 | 28 | 215 | 0.0 | 1.6 | 0.00 | 0.00 | 0.00 | 23 | 1004.1 |
| 20260506111004 | 28 | 215 | 0.0 | 1.6 | 0.00 | 0.00 | 0.00 | 23 | 1004.1 |
| 20260506110504 | 28 | 0 | 0.0 | 0.0 | 0.00 | 0.00 | 0.00 | 25 | 1004.3 |
| 20260506110214 | 27 | 225 | 1.6 | 9.7 | 0.00 | 0.00 | 0.00 | 25 | 1004.4 |
| 20260506105504 | 27 | 219 | 1.6 | 9.7 | 0.00 | 0.00 | 0.00 | 30 | 1004.3 |
| 20260506105215 | 27 | 212 | 1.6 | 9.7 | 0.00 | 0.00 | 0.00 | 30 | 1004.4 |
| 20260506104504 | 26 | 0 | 0.0 | 0.0 | 0.00 | 0.00 | 0.00 | 31 | 1004.5 |
| 20260506104003 | 26 | 0 | 0.0 | 0.0 | 0.00 | 0.00 | 0.00 | 33 | 1004.4 |
| 20260506103714 | 26 | 0 | 0.0 | 0.0 | 0.00 | 0.00 | 0.00 | 33 | 1004.6 |
| 20260506103004 | 26 | 0 | 0.0 | 0.0 | 0.00 | 0.00 | 0.00 | 33 | 1004.8 |
| 20260506102504 | 26 | 0 | 0.0 | 0.0 | 0.00 | 0.00 | 0.00 | 33 | 1004.5 |
| 20260506102004 | 26 | 0 | 0.0 | 0.0 | 0.00 | 0.00 | 0.00 | 33 | 1004.7 |
| 20260506101503 | 26 | 0 | 0.0 | 0.0 | 0.00 | 0.00 | 0.00 | 32 | 1004.6 |
| 20260506101214 | 26 | 0 | 0.0 | 0.0 | 0.00 | 0.00 | 0.00 | 32 | 1004.7 |
| 20260506100503 | 26 | 0 | 0.0 | 0.0 | 0.00 | 0.00 | 0.00 | 33 | 1004.6 |
| 20260506100004 | 26 | 0 | 0.0 | 0.0 | 0.00 | 0.00 | 0.00 | 33 | 1004.7 |
| 20260506095504 | 26 | 0 | 0.0 | 0.0 | 0.00 | 0.00 | 0.00 | 35 | 1004.7 |
| 20260506095004 | 26 | 0 | 0.0 | 0.0 | 0.00 | 0.00 | 0.00 | 35 | 1004.6 |
| 20260506094504 | 26 | 0 | 0.0 | 0.0 | 0.00 | 0.00 | 0.00 | 38 | 1004.8 |
| 20260506094004 | 25 | 0 | 0.0 | 0.0 | 0.00 | 0.00 | 0.00 | 40 | 1004.8 |
| 20260506093715 | 25 | 0 | 0.0 | 0.0 | 0.00 | 0.00 | 0.00 | 40 | 1004.9 |
| 20260506093004 | 24 | 0 | 0.0 | 0.0 | 0.00 | 0.00 | 0.00 | 40 | 1004.9 |